Time;durP1;ratioP1;P1;durP2;ratioP2;P2;SDS_P1;SDS_P2;PMS_P1;PMS_P2;Temp;Humidity;BMP_temperature;BMP_pressure;BME280_temperature;BME280_humidity;BME280_pressure;Samples;Min_cycle;Max_cycle;Signal;HPM_P1;HPM_P2
2023/01/16 00:01:40;;;;;;;71.97;22.70;;;;;;;0.14;69.94;101091.20;1662312;86;21228;-50
2023/01/16 00:04:46;;;;;;;68.62;22.37;;;;;;;0.17;69.93;101085.63;1662395;85;21227;-49
2023/01/16 00:07:54;;;;;;;76.60;23.02;;;;;;;0.19;69.98;101083.69;1662261;86;21773;-50
2023/01/16 00:11:03;;;;;;;82.33;24.52;;;;;;;0.17;69.89;101080.72;1645582;86;21272;-49
2023/01/16 00:14:08;;;;;;;93.52;24.50;;;;;;;0.16;69.83;101074.96;1662238;85;21255;-51
2023/01/16 00:17:15;;;;;;;79.92;25.15;;;;;;;0.12;69.80;101077.44;1662354;86;21204;-52
2023/01/16 00:20:21;;;;;;;84.72;23.98;;;;;;;0.13;69.94;101071.11;1662299;85;21248;-50
2023/01/16 00:23:27;;;;;;;72.92;23.30;;;;;;;0.17;69.95;101072.17;1662225;85;21221;-51
2023/01/16 00:26:34;;;;;;;80.40;25.12;;;;;;;0.10;69.90;101067.23;1662314;85;21299;-51
2023/01/16 00:29:42;;;;;;;78.22;24.80;;;;;;;0.07;69.89;101064.27;1662242;85;21308;-50
2023/01/16 00:32:48;;;;;;;78.85;25.23;;;;;;;0.09;70.07;101062.35;1662301;86;21228;-50
2023/01/16 00:35:56;;;;;;;63.13;22.02;;;;;;;0.14;70.15;101058.03;1645777;86;21216;-51
2023/01/16 00:39:02;;;;;;;82.95;27.27;;;;;;;0.14;70.15;101059.38;1662305;85;21240;-50
2023/01/16 00:42:10;;;;;;;74.12;25.17;;;;;;;0.16;70.11;101052.08;1662333;85;21225;-50
2023/01/16 00:45:17;;;;;;;74.65;25.70;;;;;;;0.11;70.01;101040.26;1643418;85;21208;-50
2023/01/16 00:48:22;;;;;;;83.10;25.00;;;;;;;0.06;69.98;101036.98;1643371;87;21221;-51
2023/01/16 00:51:28;;;;;;;66.47;23.77;;;;;;;0.05;70.07;101035.73;1643357;86;21365;-50
2023/01/16 00:54:34;;;;;;;73.35;24.98;;;;;;;0.07;70.17;101029.27;1643200;85;21218;-50
2023/01/16 00:57:39;;;;;;;61.30;23.42;;;;;;;0.08;70.13;101025.61;1643311;87;21204;-49
2023/01/16 01:00:45;;;;;;;74.30;24.02;;;;;;;0.01;70.13;101020.23;1643422;85;21241;-50
2023/01/16 01:03:55;;;;;;;65.47;23.38;;;;;;;-0.02;70.11;101021.27;1643297;85;21770;-50
2023/01/16 01:07:02;;;;;;;58.55;23.65;;;;;;;-0.07;70.18;101023.41;1643364;87;21217;-51
2023/01/16 01:10:08;;;;;;;72.12;24.23;;;;;;;-0.07;70.25;101017.15;1643229;85;21328;-51
2023/01/16 01:13:16;;;;;;;62.48;24.10;;;;;;;-0.08;70.24;101012.73;1643273;87;21264;-51
2023/01/16 01:16:24;;;;;;;64.22;23.18;;;;;;;-0.14;70.27;101008.58;1643300;86;21249;-50
2023/01/16 01:19:30;;;;;;;64.97;23.15;;;;;;;-0.13;70.32;101014.84;1643290;85;21237;-51
2023/01/16 01:22:37;;;;;;;66.28;23.62;;;;;;;-0.14;70.34;101011.73;1643398;87;21205;-50
2023/01/16 01:25:45;;;;;;;59.67;23.95;;;;;;;-0.13;70.39;101010.80;1643184;85;21288;-51
2023/01/16 01:28:51;;;;;;;64.40;24.67;;;;;;;-0.11;70.38;101008.86;1643449;85;21225;-51
2023/01/16 01:32:01;;;;;;;63.58;24.10;;;;;;;-0.09;70.39;101011.86;1643394;86;21276;-50
2023/01/16 01:35:07;;;;;;;62.60;23.65;;;;;;;-0.13;70.32;101004.08;1627143;87;21772;-49
2023/01/16 01:38:15;;;;;;;63.23;24.85;;;;;;;-0.13;70.38;101005.42;1643371;86;21225;-50
2023/01/16 01:41:23;;;;;;;69.90;26.77;;;;;;;-0.14;70.43;101002.32;1643440;87;21245;-50
2023/01/16 01:45:03;;;;;;;75.12;27.30;;;;;;;-0.09;70.60;101004.26;1652154;82;21220;-51
2023/01/16 01:48:23;;;;;;;75.05;25.75;;;;;;;-0.05;70.60;101001.28;1662331;86;21235;-50
2023/01/16 01:51:38;;;;;;;75.47;26.85;;;;;;;-0.02;70.68;100994.36;1662304;86;21353;-50
2023/01/16 01:54:48;;;;;;;74.35;25.55;;;;;;;-0.01;70.49;101001.97;1662421;85;21268;-49
2023/01/16 01:57:58;;;;;;;70.90;26.55;;;;;;;-0.06;70.47;101004.95;1662519;85;21565;-50
2023/01/16 02:01:05;;;;;;;67.65;25.35;;;;;;;-0.06;70.56;100995.53;1662339;85;21303;-51
2023/01/16 02:04:19;;;;;;;71.33;26.97;;;;;;;-0.05;70.53;101000.44;1662499;85;21300;-50
2023/01/16 02:07:25;;;;;;;82.55;26.87;;;;;;;-0.08;70.50;101009.55;1662390;86;21204;-50
2023/01/16 02:10:46;;;;;;;72.87;24.57;;;;;;;-0.07;70.59;101010.42;1662268;85;21244;-50
2023/01/16 02:13:52;;;;;;;81.85;25.80;;;;;;;-0.03;70.71;101003.41;1662377;85;21292;-50
2023/01/16 02:20:32;;;;;;;81.55;27.42;;;;;;;-0.08;70.50;101004.67;1633644;86;21247;-51
2023/01/16 02:24:13;;;;;;;86.02;27.17;;;;;;;-0.13;70.53;101001.39;1633660;86;21279;-51
2023/01/16 02:28:04;;;;;;;87.05;28.55;;;;;;;-0.17;70.54;101006.55;1662702;85;21224;-51
2023/01/16 02:31:20;;;;;;;81.65;27.52;;;;;;;-0.15;70.67;101005.52;1662293;86;21220;-50
2023/01/16 02:34:42;;;;;;;81.95;28.47;;;;;;;-0.13;70.84;101000.88;1662234;85;21240;-50
2023/01/16 02:37:58;;;;;;;83.42;29.00;;;;;;;-0.09;70.88;101001.56;1660970;85;21224;-50
2023/01/16 02:41:11;;;;;;;76.62;26.10;;;;;;;-0.08;70.89;101007.36;1662366;86;21204;-51
2023/01/16 02:44:25;;;;;;;;;;;;;;;-0.08;70.87;101004.67;1664823;85;21292;-51
2023/01/16 02:47:51;;;;;;;73.87;25.12;;;;;;;-0.10;70.79;101003.88;1662369;86;20244;-51
2023/01/16 02:51:11;;;;;;;88.70;28.95;;;;;;;-0.13;70.86;100997.35;1662319;86;21196;-49
2023/01/16 02:54:24;;;;;;;80.15;26.87;;;;;;;-0.15;71.00;100991.19;1662292;85;21216;-49
2023/01/16 02:57:31;;;;;;;95.07;29.87;;;;;;;-0.07;71.04;100995.63;1662175;86;21327;-50
2023/01/16 03:00:36;;;;;;;81.37;29.42;;;;;;;-0.11;70.99;100995.41;1662253;85;21240;-50
2023/01/16 03:03:57;;;;;;;99.35;31.40;;;;;;;-0.13;71.05;100989.28;1662361;85;21209;-51
2023/01/16 03:07:07;;;;;;;100.97;32.50;;;;;;;-0.12;71.02;100996.37;1646364;86;21233;-50
2023/01/16 03:10:41;;;;;;;105.05;31.57;;;;;;;-0.14;71.05;100995.59;1662666;85;21232;-49
2023/01/16 03:14:14;;;;;;;88.17;28.45;;;;;;;-0.15;71.14;100992.06;1662326;85;21216;-51
2023/01/16 03:17:45;;;;;;;83.78;31.37;;;;;;;-0.10;71.28;100989.97;1662271;86;21777;-51
2023/01/16 03:21:06;;;;;;;90.30;29.57;;;;;;;-0.09;71.19;100980.92;1662293;86;21228;-51
2023/01/16 03:24:21;;;;;;;95.25;31.30;;;;;;;-0.10;71.20;100972.95;1662241;85;21753;-50
2023/01/16 03:28:03;;;;;;;101.10;33.48;;;;;;;-0.12;71.15;100970.34;1662306;86;21224;-51
2023/01/16 03:31:39;;;;;;;92.40;32.78;;;;;;;-0.16;71.15;100969.30;1659799;86;21208;-50
2023/01/16 03:35:07;;;;;;;90.22;30.08;;;;;;;-0.17;71.18;100963.03;1662190;85;21244;-49
2023/01/16 03:38:18;;;;;;;94.32;32.78;;;;;;;-0.16;71.36;100965.25;1663066;84;21252;-50
2023/01/16 03:41:24;;;;;;;88.20;30.85;;;;;;;-0.14;71.38;100965.53;1662453;86;21229;-51
2023/01/16 03:44:35;;;;;;;93.37;31.52;;;;;;;-0.10;71.39;100956.80;1662200;85;21232;-50
2023/01/16 03:47:44;;;;;;;104.97;33.13;;;;;;;-0.06;71.36;100954.29;1662193;83;21228;-50
2023/01/16 03:50:54;;;;;;;100.75;31.15;;;;;;;-0.13;71.26;100944.89;1662291;85;21264;-53
2023/01/16 03:54:30;;;;;;;104.40;32.67;;;;;;;-0.15;71.34;100938.73;1672901;83;21310;-53
2023/01/16 03:57:40;;;;;;;89.67;31.55;;;;;;;-0.16;71.43;100941.05;1690177;83;21209;-57
2023/01/16 04:01:06;;;;;;;94.22;30.30;;;;;;;-0.13;71.48;100931.44;1689646;83;21220;-57
2023/01/16 04:04:24;;;;;;;99.77;33.55;;;;;;;-0.09;71.54;100934.30;1689533;83;21833;-56
2023/01/16 04:07:43;;;;;;;96.50;32.63;;;;;;;-0.07;71.51;100925.67;1689754;83;21220;-56
2023/01/16 04:10:52;;;;;;;94.65;34.65;;;;;;;-0.06;71.49;100921.53;1689721;83;21252;-56
2023/01/16 04:14:00;;;;;;;101.10;32.85;;;;;;;-0.05;71.53;100924.59;1689528;83;21275;-57
2023/01/16 04:17:06;;;;;;;103.02;34.45;;;;;;;-0.03;71.56;100924.03;1690470;83;21793;-56
2023/01/16 04:20:12;;;;;;;105.03;35.23;;;;;;;0.02;71.62;100924.23;1689750;83;21651;-57
2023/01/16 04:23:20;;;;;;;105.58;34.05;;;;;;;0.06;71.58;100927.11;1689550;85;21256;-56
2023/01/16 04:26:27;;;;;;;105.22;35.78;;;;;;;0.09;71.69;100928.25;1689652;84;21205;-56
2023/01/16 04:29:33;;;;;;;106.35;35.03;;;;;;;0.11;71.72;100931.72;1689692;83;21256;-56
2023/01/16 04:32:39;;;;;;;107.47;33.60;;;;;;;0.13;71.79;100930.65;1662233;86;21808;-56
2023/01/16 04:35:45;;;;;;;100.82;33.40;;;;;;;0.20;71.79;100933.83;1676702;85;21208;-57
2023/01/16 04:38:51;;;;;;;104.05;34.18;;;;;;;0.25;71.80;100938.44;1684633;85;21236;-58
2023/01/16 04:41:56;;;;;;;105.92;33.33;;;;;;;0.27;71.75;100939.22;1684796;84;21267;-57
2023/01/16 04:45:03;;;;;;;103.45;34.08;;;;;;;0.28;71.73;100932.86;1684665;84;21251;-58
2023/01/16 04:48:08;;;;;;;104.75;35.73;;;;;;;0.30;71.75;100935.86;1685527;81;21282;-57
2023/01/16 04:51:15;;;;;;;114.92;34.10;;;;;;;0.32;71.74;100928.52;1684453;85;21227;-58
2023/01/16 04:54:23;;;;;;;103.42;37.03;;;;;;;0.30;71.69;100912.09;1683782;84;21259;-56
2023/01/16 04:57:29;;;;;;;114.82;36.03;;;;;;;0.26;71.68;100912.77;1685866;83;21268;-57
2023/01/16 05:00:37;;;;;;;95.97;34.95;;;;;;;0.28;71.71;100919.40;1684222;85;21303;-57
2023/01/16 05:03:43;;;;;;;110.92;37.53;;;;;;;0.24;71.55;100922.77;1689425;83;21280;-57
2023/01/16 05:06:51;;;;;;;117.60;37.05;;;;;;;0.13;71.44;100921.23;1689015;83;21219;-57
2023/01/16 05:09:58;;;;;;;116.30;37.03;;;;;;;0.13;71.58;100925.77;1683934;84;21292;-57
2023/01/16 05:13:04;;;;;;;110.08;37.53;;;;;;;0.17;71.64;100928.64;1683736;84;21283;-58
2023/01/16 05:16:11;;;;;;;119.40;38.98;;;;;;;0.13;71.59;100916.35;1684307;84;21310;-58
2023/01/16 05:19:18;;;;;;;118.15;38.42;;;;;;;0.07;71.57;100912.20;1684222;84;21728;-57
2023/01/16 05:22:24;;;;;;;132.75;40.00;;;;;;;0.09;71.71;100917.48;1684083;85;21267;-58
2023/01/16 05:25:29;;;;;;;112.42;39.60;;;;;;;0.10;71.75;100913.36;1683934;85;21352;-57
2023/01/16 05:28:35;;;;;;;124.50;41.98;;;;;;;0.14;71.78;100915.37;1683605;84;21239;-57
2023/01/16 05:31:40;;;;;;;130.10;42.90;;;;;;;0.16;71.79;100917.50;1684160;84;21295;-58
2023/01/16 05:34:47;;;;;;;131.93;42.48;;;;;;;0.14;71.77;100918.94;1682851;83;21219;-57
2023/01/16 05:37:52;;;;;;;126.53;41.68;;;;;;;0.13;71.78;100921.23;1684134;84;21208;-57
2023/01/16 05:40:57;;;;;;;111.52;38.53;;;;;;;0.13;71.83;100918.54;1684186;84;21231;-57
2023/01/16 05:44:04;;;;;;;120.00;40.35;;;;;;;0.17;71.95;100916.05;1684641;84;21266;-57
2023/01/16 05:47:11;;;;;;;120.30;41.20;;;;;;;0.22;71.97;100911.72;1684614;84;21231;-57
2023/01/16 05:50:18;;;;;;;128.18;39.38;;;;;;;0.23;71.96;100908.05;1651250;83;21261;-57
2023/01/16 05:53:27;;;;;;;123.30;42.67;;;;;;;0.29;72.03;100910.34;1653967;84;21237;-57
2023/01/16 05:56:32;;;;;;;106.30;38.70;;;;;;;0.33;72.14;100907.86;1620056;87;21235;-57
2023/01/16 05:59:37;;;;;;;110.52;39.53;;;;;;;0.38;72.17;100905.73;1638751;85;21827;-57
2023/01/16 06:02:46;;;;;;;122.55;39.75;;;;;;;0.36;72.13;100909.88;1649157;83;21224;-58
2023/01/16 06:05:52;;;;;;;126.75;40.78;;;;;;;0.33;71.98;100904.70;1640846;87;21285;-57
2023/01/16 06:09:03;;;;;;;135.20;41.48;;;;;;;0.30;72.07;100902.20;1644518;85;21297;-57
2023/01/16 06:12:08;;;;;;;115.20;40.43;;;;;;;0.34;72.15;100902.38;1647598;85;21345;-58
2023/01/16 06:15:14;;;;;;;113.62;38.05;;;;;;;0.37;72.14;100902.17;1653277;86;21257;-58
2023/01/16 06:18:20;;;;;;;128.45;40.35;;;;;;;0.36;72.12;100901.80;1625722;87;21213;-58
2023/01/16 06:21:25;;;;;;;116.37;36.98;;;;;;;0.40;72.18;100900.63;1646849;85;21252;-56
2023/01/16 06:24:32;;;;;;;107.95;38.23;;;;;;;0.45;72.25;100901.67;1613510;88;21233;-57
2023/01/16 06:27:38;;;;;;;111.47;37.80;;;;;;;0.45;72.12;100901.20;1613475;87;21288;-57
2023/01/16 06:30:54;;;;;;;118.40;37.50;;;;;;;0.37;71.91;100907.56;1624453;85;21225;-58
2023/01/16 06:34:00;;;;;;;99.50;36.15;;;;;;;0.32;72.05;100900.25;1620452;87;21270;-58
2023/01/16 06:37:05;;;;;;;117.53;37.25;;;;;;;0.36;72.17;100897.77;1621251;87;21285;-58
2023/01/16 06:40:13;;;;;;;123.07;38.50;;;;;;;0.45;72.35;100891.77;1635518;87;21497;-58
2023/01/16 06:43:18;;;;;;;108.78;36.75;;;;;;;0.50;72.33;100889.66;1618726;86;21269;-58
2023/01/16 06:46:24;;;;;;;113.97;36.10;;;;;;;0.54;72.31;100897.05;1640004;86;21817;-58
2023/01/16 06:49:30;;;;;;;104.32;35.68;;;;;;;0.56;72.27;100890.59;1643973;84;21257;-60
2023/01/16 06:52:35;;;;;;;118.10;35.25;;;;;;;0.63;72.40;100905.40;1679900;84;21228;-57
2023/01/16 06:55:41;;;;;;;102.75;33.90;;;;;;;0.74;72.43;100905.55;1675875;83;21247;-58
2023/01/16 06:58:47;;;;;;;103.62;33.70;;;;;;;0.83;72.46;100902.24;1663717;84;21602;-57
2023/01/16 07:01:53;;;;;;;104.97;35.17;;;;;;;0.92;72.42;100915.09;1678153;84;21637;-58
2023/01/16 07:04:58;;;;;;;108.65;36.53;;;;;;;0.94;72.17;100915.87;1676469;84;21745;-58
2023/01/16 07:08:04;;;;;;;108.12;38.75;;;;;;;0.91;72.16;100920.12;1672677;84;21417;-58
2023/01/16 07:11:09;;;;;;;107.83;39.18;;;;;;;1.00;72.31;100931.63;1670748;84;21271;-58
2023/01/16 07:24:33;;;;;;;116.57;39.85;;;;;;;1.09;72.06;100920.25;1663890;84;21236;-56
2023/01/16 07:27:41;;;;;;;104.15;37.33;;;;;;;1.07;71.95;100923.52;1667159;85;21222;-56
2023/01/16 07:30:47;;;;;;;96.45;37.03;;;;;;;1.06;71.87;100919.58;1670857;84;21294;-58
2023/01/16 07:33:52;;;;;;;93.35;36.35;;;;;;;1.02;71.91;100914.87;1671149;85;21933;-58
2023/01/16 07:36:58;;;;;;;85.65;34.13;;;;;;;0.99;71.93;100916.42;1673276;85;21252;-58
2023/01/16 07:40:04;;;;;;;87.60;33.95;;;;;;;1.03;72.04;100926.02;1665591;84;21830;-57
2023/01/16 07:43:11;;;;;;;94.28;37.03;;;;;;;1.04;72.07;100925.08;1665620;83;21236;-60
2023/01/16 07:46:17;;;;;;;90.70;33.73;;;;;;;1.00;71.96;100926.23;1657615;83;21272;-59
2023/01/16 07:49:23;;;;;;;94.22;34.95;;;;;;;1.02;72.06;100916.22;1653262;85;21322;-58
2023/01/16 07:52:30;;;;;;;84.65;33.98;;;;;;;1.07;72.14;100922.17;1674242;83;21812;-58
2023/01/16 07:55:37;;;;;;;89.80;33.40;;;;;;;1.07;72.10;100916.78;1689881;82;21500;-57
2023/01/16 07:58:46;;;;;;;97.33;32.55;;;;;;;1.12;72.17;100921.86;1688473;85;21232;-59
2023/01/16 08:01:52;;;;;;;86.37;32.38;;;;;;;1.11;72.13;100925.53;1686711;85;21263;-58
2023/01/16 08:04:57;;;;;;;91.25;33.25;;;;;;;1.11;72.13;100920.98;1688124;83;21244;-57
2023/01/16 08:08:04;;;;;;;87.22;33.92;;;;;;;1.11;72.18;100922.33;1688807;85;21812;-58
2023/01/16 08:14:39;;;;;;;76.50;32.28;;;;;;;1.19;72.34;100917.29;1688951;83;21248;-59
2023/01/16 08:17:46;;;;;;;83.15;32.45;;;;;;;1.20;72.29;100906.03;1671892;83;22227;-58
2023/01/16 08:20:52;;;;;;;83.60;33.42;;;;;;;1.23;72.37;100906.70;1683666;83;21227;-58
2023/01/16 08:23:57;;;;;;;73.95;29.32;;;;;;;1.27;72.34;100901.93;1686685;83;21230;-58
2023/01/16 08:27:04;;;;;;;74.67;29.32;;;;;;;1.25;72.32;100900.69;1690510;83;21788;-58
2023/01/16 08:30:13;;;;;;;74.45;28.25;;;;;;;1.18;72.20;100896.70;1661101;86;21824;-57
2023/01/16 08:33:20;;;;;;;63.80;29.75;;;;;;;1.11;72.23;100898.58;1646802;86;21713;-59
2023/01/16 08:36:28;;;;;;;67.65;27.80;;;;;;;1.06;72.24;100898.86;1661805;85;21243;-57
2023/01/16 08:39:35;;;;;;;81.32;31.93;;;;;;;1.12;72.45;100893.55;1663292;84;21374;-58
2023/01/16 08:52:50;;;;;;;67.15;30.60;;;;;;;1.15;72.62;100887.48;1671253;82;21292;-58
2023/01/16 08:55:57;;;;;;;67.72;31.05;;;;;;;1.16;72.55;100891.02;1671906;85;21750;-58
2023/01/16 08:59:03;;;;;;;80.12;33.73;;;;;;;1.23;72.66;100888.30;1670908;84;21253;-59
2023/01/16 09:02:11;;;;;;;75.30;31.70;;;;;;;1.25;72.60;100883.67;1671501;83;21245;-58
2023/01/16 09:05:18;;;;;;;83.17;34.08;;;;;;;1.27;72.63;100874.49;1671661;85;21809;-59
2023/01/16 09:08:23;;;;;;;71.28;32.25;;;;;;;1.27;72.65;100877.66;1669580;84;21201;-58
2023/01/16 09:14:55;;;;;;;70.52;30.92;;;;;;;1.38;72.69;100870.57;1669672;85;21241;-59
2023/01/16 09:18:03;;;;;;;83.95;32.75;;;;;;;1.44;72.73;100866.60;1669595;86;21212;-58
2023/01/16 09:21:10;;;;;;;71.07;31.82;;;;;;;1.44;72.59;100859.35;1669346;86;21228;-58
2023/01/16 09:24:16;;;;;;;75.05;33.90;;;;;;;1.39;72.55;100854.79;1665055;85;21452;-59
2023/01/16 09:27:24;;;;;;;84.45;35.33;;;;;;;1.33;72.50;100853.84;1671218;85;21237;-59
2023/01/16 09:30:29;;;;;;;79.65;34.27;;;;;;;1.29;72.54;100852.34;1668367;85;21397;-58
2023/01/16 09:33:41;;;;;;;78.22;33.35;;;;;;;1.23;72.53;100846.50;1650835;84;21813;-54
2023/01/16 09:36:44;;;;;;;77.30;34.40;;;;;;;1.27;72.76;100846.18;1643420;86;21885;-53
2023/01/16 09:39:50;;;;;;;80.60;34.50;;;;;;;1.32;72.86;100849.91;1661729;86;21370;-53
2023/01/16 09:43:42;;;;;;;79.90;35.92;;;;;;;1.36;72.92;100843.34;1672703;84;21596;-54
2023/01/16 09:46:55;;;;;;;87.82;36.68;;;;;;;1.41;72.94;100837.99;1671026;84;21213;-54
2023/01/16 09:50:12;;;;;;;86.78;39.00;;;;;;;1.42;72.93;100845.13;1666388;84;21769;-54
2023/01/16 10:00:16;;;;;;;98.05;38.70;;;;;;;1.58;73.10;100829.20;1684398;83;21220;-53
2023/01/16 10:03:26;;;;;;;93.52;41.15;;;;;;;1.69;73.16;100834.70;1688599;85;21218;-54
2023/01/16 10:06:39;;;;;;;78.57;36.75;;;;;;;1.75;73.11;100831.09;1690489;83;21286;-54
2023/01/16 10:09:59;;;;;;;78.72;36.90;;;;;;;1.73;72.92;100830.33;1658476;85;21241;-54
2023/01/16 10:13:40;;;;;;;83.92;38.23;;;;;;;1.71;72.95;100826.02;1659773;86;21208;-54
2023/01/16 10:17:07;;;;;;;82.53;36.65;;;;;;;1.75;73.02;100826.16;1600923;87;21300;-53
2023/01/16 10:20:49;;;;;;;86.55;37.20;;;;;;;1.84;73.07;100816.09;1686987;83;21816;-54
2023/01/16 10:24:20;;;;;;;86.90;37.42;;;;;;;1.82;72.95;100809.45;1687491;84;21228;-54
2023/01/16 10:28:15;;;;;;;84.28;37.55;;;;;;;1.81;72.99;100794.20;1684066;83;21197;-53
2023/01/16 10:31:28;;;;;;;90.57;36.68;;;;;;;1.80;73.02;100786.22;1681328;85;21200;-54
2023/01/16 10:35:08;;;;;;;86.57;35.70;;;;;;;1.79;73.06;100776.41;1687411;83;21413;-54
2023/01/16 10:38:51;;;;;;;78.40;36.20;;;;;;;1.86;73.18;100777.68;1689577;83;21754;-54
2023/01/16 10:52:15;;;;;;;75.65;36.28;;;;;;;2.09;73.28;100782.28;1686447;85;21753;-54
2023/01/16 10:55:22;;;;;;;76.17;34.15;;;;;;;2.17;73.35;100777.19;1668154;82;21181;-54
2023/01/16 10:58:35;;;;;;;83.95;35.68;;;;;;;2.20;73.33;100768.84;1631023;85;21205;-54
2023/01/16 11:01:42;;;;;;;74.87;34.78;;;;;;;2.22;73.30;100768.26;1669003;85;21241;-55
2023/01/16 11:04:49;;;;;;;84.72;35.63;;;;;;;2.22;73.24;100757.45;1674971;85;21603;-56
2023/01/16 11:08:01;;;;;;;78.65;31.30;;;;;;;2.22;73.28;100756.95;1675292;85;21275;-56
2023/01/16 11:18:27;;;;;;;75.50;32.65;;;;;;;2.27;73.34;100759.30;1676205;85;21754;-55
2023/01/16 11:21:31;;;;;;;69.42;30.82;;;;;;;2.17;73.26;100767.73;1624917;84;21858;-56
2023/01/16 11:24:43;;;;;;;67.10;32.53;;;;;;;2.19;73.33;100768.48;1667423;84;21317;-55
2023/01/16 11:27:51;;;;;;;71.45;33.50;;;;;;;2.21;73.41;100775.48;1666958;84;21312;-56
2023/01/16 11:30:58;;;;;;;68.95;32.48;;;;;;;2.30;73.54;100768.55;1663693;84;21923;-57
2023/01/16 11:34:10;;;;;;;66.37;32.03;;;;;;;2.33;73.48;100762.92;1660922;84;21264;-55
2023/01/16 11:37:14;;;;;;;68.65;31.97;;;;;;;2.36;73.52;100754.07;1668861;83;22331;-55
2023/01/16 11:40:26;;;;;;;68.70;31.48;;;;;;;2.43;73.62;100758.05;1671851;84;21268;-56
2023/01/16 11:46:50;;;;;;;66.75;29.72;;;;;;;2.41;73.54;100755.95;1676887;85;21820;-54
2023/01/16 11:49:57;;;;;;;67.97;28.55;;;;;;;2.45;73.62;100751.18;1670177;84;21237;-55
2023/01/16 11:53:03;;;;;;;67.42;28.57;;;;;;;2.48;73.62;100752.30;1650361;87;21205;-55
2023/01/16 11:56:24;;;;;;;65.60;28.98;;;;;;;2.52;73.69;100748.41;1648119;85;21841;-55
2023/01/16 12:00:10;;;;;;;53.73;26.68;;;;;;;2.51;73.51;100751.58;1643573;86;21256;-54
2023/01/16 12:03:36;;;;;;;59.23;29.48;;;;;;;2.50;73.51;100737.71;1643526;86;21220;-53
2023/01/16 12:07:05;;;;;;;62.78;28.07;;;;;;;2.43;73.46;100750.42;1642462;86;21229;-52
2023/01/16 12:10:42;;;;;;;53.52;25.00;;;;;;;2.37;73.48;100750.41;1642840;86;21225;-54
2023/01/16 12:17:40;;;;;;;56.18;26.25;;;;;;;2.30;73.63;100749.14;1619055;88;21247;-53
2023/01/16 12:21:16;;;;;;;52.53;24.95;;;;;;;2.24;73.55;100754.12;1625922;87;21240;-54
2023/01/16 12:24:48;;;;;;;53.15;25.95;;;;;;;2.23;73.76;100734.86;1643840;86;21256;-52
2023/01/16 12:28:27;;;;;;;55.63;25.20;;;;;;;2.27;73.79;100742.61;1644638;86;21268;-53
2023/01/16 12:32:14;;;;;;;42.83;23.83;;;;;;;2.27;73.85;100733.16;1644541;86;21260;-54
2023/01/16 12:35:49;;;;;;;49.10;23.30;;;;;;;2.22;73.83;100730.45;1656180;84;21346;-53
2023/01/16 12:39:06;;;;;;;51.77;24.18;;;;;;;2.20;73.93;100726.99;1670164;84;21220;-53
2023/01/16 12:46:12;;;;;;;47.15;24.85;;;;;;;2.16;74.02;100722.78;1670120;85;21240;-53
2023/01/16 12:49:39;;;;;;;44.42;23.52;;;;;;;2.16;74.10;100711.98;1670546;84;21790;-52
2023/01/16 12:52:59;;;;;;;49.95;24.52;;;;;;;2.18;74.18;100714.95;1669998;86;21193;-52
2023/01/16 12:56:30;;;;;;;46.90;24.10;;;;;;;2.13;74.02;100713.08;1652324;82;21229;-52
2023/01/16 13:00:11;;;;;;;57.38;25.48;;;;;;;2.06;74.02;100713.16;1633523;86;21261;-51
2023/01/16 13:03:26;;;;;;;;;;;;;;;2.04;74.10;100706.16;1639583;87;21856;-53
2023/01/16 13:06:43;;;;;;;50.83;25.48;;;;;;;2.01;74.14;100709.09;1636531;86;20222;-53
2023/01/16 13:13:20;;;;;;;43.75;23.10;;;;;;;1.98;74.27;100703.44;1640479;86;21253;-52
2023/01/16 13:16:36;;;;;;;53.42;26.50;;;;;;;2.06;74.44;100689.37;1637931;87;21783;-54
2023/01/16 13:19:45;;;;;;;47.53;25.25;;;;;;;2.06;74.47;100688.02;1614934;87;21243;-53
2023/01/16 13:23:24;;;;;;;51.73;25.15;;;;;;;2.04;74.50;100688.13;1638745;87;21237;-52
2023/01/16 13:26:30;;;;;;;49.67;26.77;;;;;;;2.04;74.44;100695.36;1638035;87;21846;-51
2023/01/16 13:29:47;;;;;;;53.52;28.12;;;;;;;1.99;74.43;100693.48;1623389;87;21284;-52
2023/01/16 13:33:02;;;;;;;50.98;26.62;;;;;;;1.96;74.46;100695.06;1638495;87;21663;-51
2023/01/16 13:36:44;;;;;;;45.52;25.02;;;;;;;1.96;74.51;100703.16;1638899;87;21260;-52
2023/01/16 13:40:22;;;;;;;47.60;24.98;;;;;;;1.96;74.60;100714.83;1613252;88;21252;-53
2023/01/16 13:47:21;;;;;;;51.20;26.02;;;;;;;1.88;74.60;100713.19;1639589;86;21261;-55
2023/01/16 13:50:32;;;;;;;44.53;25.40;;;;;;;1.83;74.59;100712.66;1636689;84;21217;-52
2023/01/16 13:53:40;;;;;;;42.27;24.25;;;;;;;1.80;74.69;100717.41;1639621;86;21227;-53
2023/01/16 13:56:49;;;;;;;50.38;25.62;;;;;;;1.78;74.74;100718.00;1637072;86;22103;-51
2023/01/16 14:00:01;;;;;;;46.25;24.30;;;;;;;1.80;74.81;100718.76;1666673;84;21224;-51
2023/01/16 14:03:23;;;;;;;37.73;21.87;;;;;;;1.84;74.90;100723.81;1667544;84;21273;-52
2023/01/16 14:06:33;;;;;;;41.68;23.45;;;;;;;1.88;74.94;100725.80;1673915;83;21219;-51
2023/01/16 14:09:41;;;;;;;48.85;23.00;;;;;;;1.86;74.88;100722.35;1627783;85;21296;-52
2023/01/16 14:13:22;;;;;;;42.30;22.73;;;;;;;1.86;74.94;100720.52;1650174;84;21213;-53
2023/01/16 14:16:39;;;;;;;49.93;21.93;;;;;;;1.88;75.02;100725.80;1664193;84;21253;-53
2023/01/16 14:19:47;;;;;;;41.85;22.48;;;;;;;1.95;75.16;100721.70;1654904;84;21242;-53
2023/01/16 14:26:48;;;;;;;41.50;23.30;;;;;;;1.98;75.02;100716.94;1661597;85;21288;-52
2023/01/16 14:30:11;;;;;;;42.33;22.10;;;;;;;1.93;74.86;100712.84;1651581;85;21248;-52
2023/01/16 14:33:19;;;;;;;40.52;19.82;;;;;;;1.86;74.85;100704.33;1664190;84;21209;-52
2023/01/16 14:36:25;;;;;;;37.38;20.48;;;;;;;1.89;74.99;100704.10;1666716;84;21216;-52
2023/01/16 14:39:42;;;;;;;38.88;21.30;;;;;;;1.93;75.05;100712.84;1665486;85;21213;-52
2023/01/16 14:57:24;;;;;;;47.50;23.07;;;;;;;1.91;75.11;100698.11;1667668;84;22079;-52
2023/01/16 15:00:32;;;;;;;48.08;25.00;;;;;;;1.98;75.24;100691.30;1683411;83;21313;-52
2023/01/16 15:03:41;;;;;;;44.90;23.98;;;;;;;2.11;75.37;100695.29;1661021;85;21236;-55
2023/01/16 15:06:50;;;;;;;44.63;23.55;;;;;;;2.16;75.39;100690.38;1660324;86;21248;-51
2023/01/16 15:09:59;;;;;;;47.67;25.05;;;;;;;2.26;75.52;100694.12;1669360;84;21228;-52
2023/01/16 15:24:02;;;;;;;55.17;26.75;;;;;;;2.46;75.29;100684.00;1678538;85;21224;-52
2023/01/16 15:27:22;;;;;;;45.17;24.95;;;;;;;2.50;75.35;100677.40;1670131;85;21591;-52
2023/01/16 15:30:29;;;;;;;49.03;25.88;;;;;;;2.49;75.20;100681.93;1688745;83;21300;-52
2023/01/16 15:33:48;;;;;;;51.75;27.50;;;;;;;2.48;75.19;100673.95;1687500;83;21228;-52
2023/01/16 15:36:57;;;;;;;54.73;27.85;;;;;;;2.50;75.17;100678.75;1685388;84;21236;-52
2023/01/16 15:40:06;;;;;;;58.00;27.80;;;;;;;2.55;75.27;100687.38;1690688;83;21272;-53
2023/01/16 15:46:51;;;;;;;57.50;28.38;;;;;;;2.65;75.33;100677.55;1684362;84;21272;-52
2023/01/16 15:50:25;;;;;;;55.55;29.07;;;;;;;2.63;75.19;100674.13;1658971;85;21248;-52
2023/01/16 15:53:33;;;;;;;65.83;32.00;;;;;;;2.60;75.24;100683.31;1659686;85;21252;-52
2023/01/16 15:56:45;;;;;;;61.02;31.80;;;;;;;2.65;75.33;100697.34;1684798;84;21277;-52
2023/01/16 16:00:02;;;;;;;56.35;30.62;;;;;;;2.69;75.41;100688.03;1683978;83;21802;-52
2023/01/16 16:03:25;;;;;;;61.05;31.05;;;;;;;2.72;75.40;100689.62;1668678;86;21209;-53
2023/01/16 16:06:30;;;;;;;55.20;30.72;;;;;;;2.78;75.51;100686.44;1663033;84;21651;-53
2023/01/16 16:09:37;;;;;;;61.58;33.80;;;;;;;2.83;75.59;100689.66;1664991;86;21905;-51
2023/01/16 16:12:43;;;;;;;55.50;29.12;;;;;;;2.90;75.60;100683.64;1670282;84;21202;-51
2023/01/16 16:19:41;;;;;;;51.65;29.90;;;;;;;2.83;75.20;100681.06;1646107;86;21253;-51
2023/01/16 16:22:49;;;;;;;53.00;29.55;;;;;;;2.75;75.12;100678.58;1644335;85;21364;-52
2023/01/16 16:26:04;;;;;;;55.65;31.50;;;;;;;2.76;75.23;100687.91;1658484;86;21341;-52
2023/01/16 16:29:10;;;;;;;;;;;;;;;2.73;75.07;100680.05;1646449;85;21226;-51
2023/01/16 16:32:21;;;;;;;49.20;28.15;;;;;;;2.66;75.00;100681.48;1658295;85;20625;-52